sensor_id;sensor_type;location;lat;lon;timestamp;P1;durP1;ratioP1;P2;durP2;ratioP2
59038;SDS011;44824;43.376;19.630;2023-04-06T09:16:26;18.85;;;11.60;;
59038;SDS011;44824;43.376;19.630;2023-04-06T09:19:18;16.83;;;11.60;;
59038;SDS011;44824;43.376;19.630;2023-04-06T09:22:15;23.33;;;13.85;;
59038;SDS011;44824;43.376;19.630;2023-04-06T09:24:56;18.38;;;11.82;;
59038;SDS011;44824;43.376;19.630;2023-04-06T09:31:05;16.42;;;10.63;;
59038;SDS011;44824;43.376;19.630;2023-04-06T09:34:06;18.00;;;10.88;;
59038;SDS011;44824;43.376;19.630;2023-04-06T09:36:39;16.92;;;9.70;;
59038;SDS011;44824;43.376;19.630;2023-04-06T09:39:09;13.10;;;8.95;;
59038;SDS011;44824;43.376;19.630;2023-04-06T09:42:03;30.33;;;20.67;;
59038;SDS011;44824;43.376;19.630;2023-04-06T09:47:50;18.92;;;10.52;;
59038;SDS011;44824;43.376;19.630;2023-04-06T09:50:44;15.07;;;9.85;;
59038;SDS011;44824;43.376;19.630;2023-04-06T09:53:19;18.15;;;10.65;;
59038;SDS011;44824;43.376;19.630;2023-04-06T09:55:52;14.77;;;9.95;;
59038;SDS011;44824;43.376;19.630;2023-04-06T09:58:21;13.52;;;9.48;;
59038;SDS011;44824;43.376;19.630;2023-04-06T10:01:25;17.02;;;10.90;;
59038;SDS011;44824;43.376;19.630;2023-04-06T10:04:27;16.73;;;11.18;;
59038;SDS011;44824;43.376;19.630;2023-04-06T10:07:12;18.25;;;10.93;;
59038;SDS011;44824;43.376;19.630;2023-04-06T10:10:12;16.48;;;11.68;;
59038;SDS011;44824;43.376;19.630;2023-04-06T10:16:01;20.77;;;14.95;;
59038;SDS011;44824;43.376;19.630;2023-04-06T10:19:00;21.52;;;16.35;;
59038;SDS011;44824;43.376;19.630;2023-04-06T10:21:40;17.83;;;11.80;;
59038;SDS011;44824;43.376;19.630;2023-04-06T10:24:27;18.13;;;11.82;;
59038;SDS011;44824;43.376;19.630;2023-04-06T10:27:03;15.85;;;10.00;;
59038;SDS011;44824;43.376;19.630;2023-04-06T10:29:46;20.95;;;13.05;;
59038;SDS011;44824;43.376;19.630;2023-04-06T10:32:18;15.82;;;11.25;;
59038;SDS011;44824;43.376;19.630;2023-04-06T10:34:49;18.73;;;10.63;;
59038;SDS011;44824;43.376;19.630;2023-04-06T10:37:16;14.83;;;9.33;;
59038;SDS011;44824;43.376;19.630;2023-04-06T10:39:55;17.05;;;11.13;;
59038;SDS011;44824;43.376;19.630;2023-04-06T10:42:45;16.90;;;12.25;;
59038;SDS011;44824;43.376;19.630;2023-04-06T10:45:53;16.25;;;11.63;;
59038;SDS011;44824;43.376;19.630;2023-04-06T10:48:17;21.75;;;12.95;;
59038;SDS011;44824;43.376;19.630;2023-04-06T10:50:46;28.70;;;14.93;;
59038;SDS011;44824;43.376;19.630;2023-04-06T10:53:20;22.45;;;13.65;;
59038;SDS011;44824;43.376;19.630;2023-04-06T10:55:46;18.75;;;12.05;;
59038;SDS011;44824;43.376;19.630;2023-04-06T11:01:10;18.95;;;13.32;;
59038;SDS011;44824;43.376;19.630;2023-04-06T11:03:49;16.73;;;11.45;;
59038;SDS011;44824;43.376;19.630;2023-04-06T11:06:40;20.05;;;12.00;;
59038;SDS011;44824;43.376;19.630;2023-04-06T11:09:07;19.15;;;12.15;;
59038;SDS011;44824;43.376;19.630;2023-04-06T11:11:40;19.02;;;11.82;;
59038;SDS011;44824;43.376;19.630;2023-04-06T11:14:14;17.08;;;11.88;;
59038;SDS011;44824;43.376;19.630;2023-04-06T11:16:40;18.40;;;12.40;;
59038;SDS011;44824;43.376;19.630;2023-04-06T11:19:06;16.80;;;12.07;;
59038;SDS011;44824;43.376;19.630;2023-04-06T11:21:48;16.42;;;10.45;;
59038;SDS011;44824;43.376;19.630;2023-04-06T11:26:58;16.25;;;11.57;;
59038;SDS011;44824;43.376;19.630;2023-04-06T11:32:39;11.07;;;7.28;;
59038;SDS011;44824;43.376;19.630;2023-04-06T11:35:26;16.88;;;11.35;;
59038;SDS011;44824;43.376;19.630;2023-04-06T11:37:52;16.98;;;11.20;;
59038;SDS011;44824;43.376;19.630;2023-04-06T11:40:22;12.90;;;8.98;;
59038;SDS011;44824;43.376;19.630;2023-04-06T11:42:59;14.10;;;10.15;;
59038;SDS011;44824;43.376;19.630;2023-04-06T11:45:25;14.68;;;10.20;;
59038;SDS011;44824;43.376;19.630;2023-04-06T11:48:03;14.05;;;10.35;;
59038;SDS011;44824;43.376;19.630;2023-04-06T11:50:32;20.02;;;11.13;;
59038;SDS011;44824;43.376;19.630;2023-04-06T11:53:00;23.98;;;15.60;;
59038;SDS011;44824;43.376;19.630;2023-04-06T11:55:38;16.73;;;12.77;;
59038;SDS011;44824;43.376;19.630;2023-04-06T12:04:01;15.60;;;10.18;;
59038;SDS011;44824;43.376;19.630;2023-04-06T12:10:14;16.10;;;10.13;;
59038;SDS011;44824;43.376;19.630;2023-04-06T12:12:41;20.35;;;14.20;;
59038;SDS011;44824;43.376;19.630;2023-04-06T12:15:13;13.95;;;8.88;;
59038;SDS011;44824;43.376;19.630;2023-04-06T12:17:48;17.02;;;12.32;;
59038;SDS011;44824;43.376;19.630;2023-04-06T12:23:05;17.85;;;12.48;;
59038;SDS011;44824;43.376;19.630;2023-04-06T12:25:33;18.52;;;11.18;;
59038;SDS011;44824;43.376;19.630;2023-04-06T12:27:59;26.23;;;21.10;;
59038;SDS011;44824;43.376;19.630;2023-04-06T12:33:35;15.25;;;9.65;;
59038;SDS011;44824;43.376;19.630;2023-04-06T12:36:02;12.98;;;8.55;;
59038;SDS011;44824;43.376;19.630;2023-04-06T12:38:28;14.07;;;9.38;;
59038;SDS011;44824;43.376;19.630;2023-04-06T12:40:57;19.58;;;13.10;;
59038;SDS011;44824;43.376;19.630;2023-04-06T12:43:26;14.93;;;10.82;;
59038;SDS011;44824;43.376;19.630;2023-04-06T12:45:55;19.33;;;11.20;;
59038;SDS011;44824;43.376;19.630;2023-04-06T12:48:21;13.88;;;8.82;;
59038;SDS011;44824;43.376;19.630;2023-04-06T12:50:55;12.57;;;8.48;;
59038;SDS011;44824;43.376;19.630;2023-04-06T12:53:39;13.73;;;8.85;;
59038;SDS011;44824;43.376;19.630;2023-04-06T12:56:21;14.18;;;9.55;;
59038;SDS011;44824;43.376;19.630;2023-04-06T13:01:51;15.38;;;8.77;;
59038;SDS011;44824;43.376;19.630;2023-04-06T13:04:24;17.80;;;11.00;;
59038;SDS011;44824;43.376;19.630;2023-04-06T13:06:51;19.73;;;12.75;;
59038;SDS011;44824;43.376;19.630;2023-04-06T13:09:18;11.68;;;7.75;;
59038;SDS011;44824;43.376;19.630;2023-04-06T13:11:44;32.42;;;24.63;;
59038;SDS011;44824;43.376;19.630;2023-04-06T13:14:16;26.92;;;23.05;;
59038;SDS011;44824;43.376;19.630;2023-04-06T13:16:45;25.40;;;17.02;;
59038;SDS011;44824;43.376;19.630;2023-04-06T13:19:12;42.40;;;24.67;;
59038;SDS011;44824;43.376;19.630;2023-04-06T13:21:44;65.88;;;39.53;;
59038;SDS011;44824;43.376;19.630;2023-04-06T13:26:57;34.60;;;18.77;;
59038;SDS011;44824;43.376;19.630;2023-04-06T13:29:26;21.27;;;16.08;;
59038;SDS011;44824;43.376;19.630;2023-04-06T13:31:52;60.67;;;38.22;;
59038;SDS011;44824;43.376;19.630;2023-04-06T13:47:18;12.05;;;7.72;;
59038;SDS011;44824;43.376;19.630;2023-04-06T13:49:44;34.05;;;24.45;;
59038;SDS011;44824;43.376;19.630;2023-04-06T13:52:10;16.50;;;10.88;;
59038;SDS011;44824;43.376;19.630;2023-04-06T13:54:36;13.70;;;8.85;;
59038;SDS011;44824;43.376;19.630;2023-04-06T13:57:03;14.07;;;9.07;;
59038;SDS011;44824;43.376;19.630;2023-04-06T14:02:23;11.43;;;7.10;;
59038;SDS011;44824;43.376;19.630;2023-04-06T14:04:52;12.57;;;8.52;;
59038;SDS011;44824;43.376;19.630;2023-04-06T14:07:20;22.08;;;13.43;;
59038;SDS011;44824;43.376;19.630;2023-04-06T14:09:49;10.90;;;6.68;;
59038;SDS011;44824;43.376;19.630;2023-04-06T14:12:15;13.93;;;11.93;;
59038;SDS011;44824;43.376;19.630;2023-04-06T14:14:51;12.90;;;9.20;;
59038;SDS011;44824;43.376;19.630;2023-04-06T14:17:17;13.65;;;6.38;;
59038;SDS011;44824;43.376;19.630;2023-04-06T14:19:43;9.80;;;5.63;;
59038;SDS011;44824;43.376;19.630;2023-04-06T14:22:12;10.32;;;6.43;;
59038;SDS011;44824;43.376;19.630;2023-04-06T14:24:47;10.60;;;6.90;;
59038;SDS011;44824;43.376;19.630;2023-04-06T14:27:13;19.90;;;13.55;;
59038;SDS011;44824;43.376;19.630;2023-04-06T14:29:39;12.25;;;8.73;;
59038;SDS011;44824;43.376;19.630;2023-04-06T14:32:20;13.73;;;7.93;;
59038;SDS011;44824;43.376;19.630;2023-04-06T14:35:08;11.45;;;6.72;;
59038;SDS011;44824;43.376;19.630;2023-04-06T14:37:41;11.70;;;6.57;;
59038;SDS011;44824;43.376;19.630;2023-04-06T14:40:17;13.75;;;7.88;;
59038;SDS011;44824;43.376;19.630;2023-04-06T14:42:49;14.98;;;9.30;;
59038;SDS011;44824;43.376;19.630;2023-04-06T14:51:33;12.63;;;8.00;;
59038;SDS011;44824;43.376;19.630;2023-04-06T14:54:00;16.85;;;8.45;;
59038;SDS011;44824;43.376;19.630;2023-04-06T14:56:27;11.93;;;7.47;;
59038;SDS011;44824;43.376;19.630;2023-04-06T14:59:00;12.40;;;8.07;;
59038;SDS011;44824;43.376;19.630;2023-04-06T15:04:02;18.23;;;10.80;;
59038;SDS011;44824;43.376;19.630;2023-04-06T15:06:30;13.18;;;7.88;;
59038;SDS011;44824;43.376;19.630;2023-04-06T15:08:56;18.75;;;11.48;;
59038;SDS011;44824;43.376;19.630;2023-04-06T15:11:22;16.92;;;10.90;;
59038;SDS011;44824;43.376;19.630;2023-04-06T15:16:47;16.30;;;10.38;;
59038;SDS011;44824;43.376;19.630;2023-04-06T15:19:13;14.70;;;8.85;;
59038;SDS011;44824;43.376;19.630;2023-04-06T15:21:40;13.48;;;8.55;;
59038;SDS011;44824;43.376;19.630;2023-04-06T15:24:19;15.32;;;9.88;;
59038;SDS011;44824;43.376;19.630;2023-04-06T15:26:46;15.02;;;9.32;;
59038;SDS011;44824;43.376;19.630;2023-04-06T15:29:29;23.08;;;19.25;;
59038;SDS011;44824;43.376;19.630;2023-04-06T15:32:25;66.15;;;47.03;;
59038;SDS011;44824;43.376;19.630;2023-04-06T15:35:07;126.57;;;89.13;;
59038;SDS011;44824;43.376;19.630;2023-04-06T15:38:06;118.28;;;86.32;;
59038;SDS011;44824;43.376;19.630;2023-04-06T15:40:32;77.60;;;46.72;;
59038;SDS011;44824;43.376;19.630;2023-04-06T15:43:04;36.13;;;23.48;;
59038;SDS011;44824;43.376;19.630;2023-04-06T15:45:39;22.40;;;14.40;;
59038;SDS011;44824;43.376;19.630;2023-04-06T15:48:06;70.47;;;45.78;;
59038;SDS011;44824;43.376;19.630;2023-04-06T15:50:32;34.75;;;22.63;;
59038;SDS011;44824;43.376;19.630;2023-04-06T15:55:34;17.77;;;12.30;;
59038;SDS011;44824;43.376;19.630;2023-04-06T15:58:03;27.02;;;17.10;;
59038;SDS011;44824;43.376;19.630;2023-04-06T16:18:44;31.75;;;21.95;;
59038;SDS011;44824;43.376;19.630;2023-04-06T16:21:22;38.08;;;22.25;;
59038;SDS011;44824;43.376;19.630;2023-04-06T16:24:02;28.17;;;18.48;;
59038;SDS011;44824;43.376;19.630;2023-04-06T16:26:33;18.40;;;11.85;;
59038;SDS011;44824;43.376;19.630;2023-04-06T16:31:55;21.50;;;13.88;;
59038;SDS011;44824;43.376;19.630;2023-04-06T16:34:22;33.60;;;17.05;;
59038;SDS011;44824;43.376;19.630;2023-04-06T16:36:59;24.15;;;16.50;;
59038;SDS011;44824;43.376;19.630;2023-04-06T16:39:49;23.38;;;16.13;;
59038;SDS011;44824;43.376;19.630;2023-04-06T16:42:16;29.33;;;20.02;;
59038;SDS011;44824;43.376;19.630;2023-04-06T16:47:49;29.52;;;19.67;;
59038;SDS011;44824;43.376;19.630;2023-04-06T16:50:16;32.42;;;20.65;;
59038;SDS011;44824;43.376;19.630;2023-04-06T16:52:54;34.47;;;21.40;;
59038;SDS011;44824;43.376;19.630;2023-04-06T16:55:20;35.05;;;21.95;;
59038;SDS011;44824;43.376;19.630;2023-04-06T16:57:46;45.42;;;26.60;;
59038;SDS011;44824;43.376;19.630;2023-04-06T17:03:32;72.75;;;41.28;;
59038;SDS011;44824;43.376;19.630;2023-04-06T17:06:06;54.97;;;35.78;;
59038;SDS011;44824;43.376;19.630;2023-04-06T17:08:32;51.88;;;33.40;;
59038;SDS011;44824;43.376;19.630;2023-04-06T17:11:23;44.63;;;27.35;;
59038;SDS011;44824;43.376;19.630;2023-04-06T17:13:49;31.23;;;21.33;;
59038;SDS011;44824;43.376;19.630;2023-04-06T17:16:18;34.60;;;21.27;;
59038;SDS011;44824;43.376;19.630;2023-04-06T17:34:31;57.72;;;35.47;;
59038;SDS011;44824;43.376;19.630;2023-04-06T17:37:08;43.53;;;25.50;;
59038;SDS011;44824;43.376;19.630;2023-04-06T17:42:22;54.90;;;33.25;;
59038;SDS011;44824;43.376;19.630;2023-04-06T17:47:55;72.20;;;40.78;;
59038;SDS011;44824;43.376;19.630;2023-04-06T17:51:06;63.78;;;35.33;;
59038;SDS011;44824;43.376;19.630;2023-04-06T17:53:33;55.80;;;34.72;;
59038;SDS011;44824;43.376;19.630;2023-04-06T17:56:04;55.97;;;32.10;;
59038;SDS011;44824;43.376;19.630;2023-04-06T17:58:55;51.95;;;33.33;;
59038;SDS011;44824;43.376;19.630;2023-04-06T18:01:24;59.05;;;35.78;;
59038;SDS011;44824;43.376;19.630;2023-04-06T18:27:54;53.58;;;31.88;;
59038;SDS011;44824;43.376;19.630;2023-04-06T18:33:52;48.60;;;31.45;;
59038;SDS011;44824;43.376;19.630;2023-04-06T19:08:09;62.42;;;42.38;;
59038;SDS011;44824;43.376;19.630;2023-04-06T19:11:03;74.65;;;45.85;;
59038;SDS011;44824;43.376;19.630;2023-04-06T19:39:51;55.67;;;34.85;;
59038;SDS011;44824;43.376;19.630;2023-04-06T19:45:42;57.33;;;35.95;;
59038;SDS011;44824;43.376;19.630;2023-04-06T19:51:13;56.40;;;34.97;;
59038;SDS011;44824;43.376;19.630;2023-04-06T19:53:48;50.10;;;32.28;;
59038;SDS011;44824;43.376;19.630;2023-04-06T21:55:24;45.40;;;30.33;;
59038;SDS011;44824;43.376;19.630;2023-04-06T21:58:11;48.97;;;31.48;;
59038;SDS011;44824;43.376;19.630;2023-04-06T22:00:41;47.55;;;30.00;;
59038;SDS011;44824;43.376;19.630;2023-04-06T22:03:25;42.53;;;28.13;;
59038;SDS011;44824;43.376;19.630;2023-04-06T22:06:19;45.55;;;26.45;;
59038;SDS011;44824;43.376;19.630;2023-04-06T22:09:15;44.22;;;28.98;;
59038;SDS011;44824;43.376;19.630;2023-04-06T22:14:57;52.20;;;29.60;;
59038;SDS011;44824;43.376;19.630;2023-04-06T22:17:26;54.28;;;31.70;;
59038;SDS011;44824;43.376;19.630;2023-04-06T22:20:42;45.50;;;28.17;;
59038;SDS011;44824;43.376;19.630;2023-04-06T22:23:36;49.53;;;31.85;;
59038;SDS011;44824;43.376;19.630;2023-04-06T22:26:08;50.13;;;32.30;;
59038;SDS011;44824;43.376;19.630;2023-04-06T22:39:24;29.88;;;19.30;;
59038;SDS011;44824;43.376;19.630;2023-04-06T22:42:21;25.50;;;15.20;;
59038;SDS011;44824;43.376;19.630;2023-04-06T22:45:19;24.48;;;15.43;;
59038;SDS011;44824;43.376;19.630;2023-04-06T22:53:36;36.22;;;23.88;;
59038;SDS011;44824;43.376;19.630;2023-04-06T22:56:26;29.40;;;19.60;;
